sensor_id;sensor_type;location;lat;lon;timestamp;temperature;humidity
38746;DHT22;24488;0.000;0.000;2024-01-30T00:00:07;24.10;39.40
38746;DHT22;24488;0.000;0.000;2024-01-30T00:02:33;24.10;38.90
38746;DHT22;24488;0.000;0.000;2024-01-30T00:04:59;24.10;39.40
38746;DHT22;24488;0.000;0.000;2024-01-30T00:07:24;24.10;39.40
38746;DHT22;24488;0.000;0.000;2024-01-30T00:09:50;24.10;39.40
38746;DHT22;24488;0.000;0.000;2024-01-30T00:12:15;24.10;39.00
38746;DHT22;24488;0.000;0.000;2024-01-30T00:14:41;24.90;39.80
38746;DHT22;24488;0.000;0.000;2024-01-30T00:17:08;24.10;39.50
38746;DHT22;24488;0.000;0.000;2024-01-30T00:19:34;24.10;39.50
38746;DHT22;24488;0.000;0.000;2024-01-30T00:22:00;24.10;39.10
38746;DHT22;24488;0.000;0.000;2024-01-30T00:24:25;24.10;39.50
38746;DHT22;24488;0.000;0.000;2024-01-30T00:26:51;24.10;39.60
38746;DHT22;24488;0.000;0.000;2024-01-30T00:29:17;24.10;39.20
38746;DHT22;24488;0.000;0.000;2024-01-30T00:31:45;24.10;39.40
38746;DHT22;24488;0.000;0.000;2024-01-30T00:34:11;24.20;38.80
38746;DHT22;24488;0.000;0.000;2024-01-30T00:36:37;24.20;39.10
38746;DHT22;24488;0.000;0.000;2024-01-30T00:39:02;24.20;39.10
38746;DHT22;24488;0.000;0.000;2024-01-30T00:41:31;24.20;39.00
38746;DHT22;24488;0.000;0.000;2024-01-30T00:43:57;24.20;38.50
38746;DHT22;24488;0.000;0.000;2024-01-30T00:46:23;24.20;39.00
38746;DHT22;24488;0.000;0.000;2024-01-30T00:48:48;24.20;39.00
38746;DHT22;24488;0.000;0.000;2024-01-30T00:51:14;24.10;38.90
38746;DHT22;24488;0.000;0.000;2024-01-30T00:53:40;24.20;38.40
38746;DHT22;24488;0.000;0.000;2024-01-30T00:56:07;24.20;38.90
38746;DHT22;24488;0.000;0.000;2024-01-30T00:58:33;24.10;38.80
38746;DHT22;24488;0.000;0.000;2024-01-30T01:00:58;24.10;38.80
38746;DHT22;24488;0.000;0.000;2024-01-30T01:03:24;24.10;38.50
38746;DHT22;24488;0.000;0.000;2024-01-30T01:05:50;24.00;39.10
38746;DHT22;24488;0.000;0.000;2024-01-30T01:08:15;24.00;39.10
38746;DHT22;24488;0.000;0.000;2024-01-30T01:10:41;23.90;39.10
38746;DHT22;24488;0.000;0.000;2024-01-30T01:13:06;24.00;38.70
38746;DHT22;24488;0.000;0.000;2024-01-30T01:15:32;23.90;39.10
38746;DHT22;24488;0.000;0.000;2024-01-30T01:17:57;23.90;39.10
38746;DHT22;24488;0.000;0.000;2024-01-30T01:20:23;23.90;39.00
38746;DHT22;24488;0.000;0.000;2024-01-30T01:22:49;23.90;38.60
38746;DHT22;24488;0.000;0.000;2024-01-30T01:25:14;23.90;39.10
38746;DHT22;24488;0.000;0.000;2024-01-30T01:27:40;23.90;39.00
38746;DHT22;24488;0.000;0.000;2024-01-30T01:30:09;23.90;39.00
38746;DHT22;24488;0.000;0.000;2024-01-30T01:32:36;23.80;38.70
38746;DHT22;24488;0.000;0.000;2024-01-30T01:35:03;23.80;39.20
38746;DHT22;24488;0.000;0.000;2024-01-30T01:37:31;23.80;39.20
38746;DHT22;24488;0.000;0.000;2024-01-30T01:39:56;23.80;39.20
38746;DHT22;24488;0.000;0.000;2024-01-30T01:42:22;23.70;38.70
38746;DHT22;24488;0.000;0.000;2024-01-30T01:44:47;23.80;39.10
38746;DHT22;24488;0.000;0.000;2024-01-30T01:47:13;23.80;39.20
38746;DHT22;24488;0.000;0.000;2024-01-30T01:49:39;23.70;39.10
38746;DHT22;24488;0.000;0.000;2024-01-30T01:52:05;23.70;38.70
38746;DHT22;24488;0.000;0.000;2024-01-30T01:54:30;23.70;39.20
38746;DHT22;24488;0.000;0.000;2024-01-30T01:56:56;23.70;39.20
38746;DHT22;24488;0.000;0.000;2024-01-30T01:59:22;23.70;39.20
38746;DHT22;24488;0.000;0.000;2024-01-30T02:01:49;23.70;39.20
38746;DHT22;24488;0.000;0.000;2024-01-30T02:04:15;23.60;38.80
38746;DHT22;24488;0.000;0.000;2024-01-30T02:06:41;23.60;39.20
38746;DHT22;24488;0.000;0.000;2024-01-30T02:09:08;23.60;39.20
38746;DHT22;24488;0.000;0.000;2024-01-30T02:11:34;23.60;39.20
38746;DHT22;24488;0.000;0.000;2024-01-30T02:14:03;23.60;38.70
38746;DHT22;24488;0.000;0.000;2024-01-30T02:16:29;23.60;39.20
38746;DHT22;24488;0.000;0.000;2024-01-30T02:18:55;23.60;39.10
38746;DHT22;24488;0.000;0.000;2024-01-30T02:21:20;23.60;39.20
38746;DHT22;24488;0.000;0.000;2024-01-30T02:23:46;23.50;38.70
38746;DHT22;24488;0.000;0.000;2024-01-30T02:26:12;23.50;39.20
38746;DHT22;24488;0.000;0.000;2024-01-30T02:28:38;23.50;39.20
38746;DHT22;24488;0.000;0.000;2024-01-30T02:31:04;23.50;39.20
38746;DHT22;24488;0.000;0.000;2024-01-30T02:33:29;23.50;38.70
38746;DHT22;24488;0.000;0.000;2024-01-30T02:35:55;23.50;39.10
38746;DHT22;24488;0.000;0.000;2024-01-30T02:38:21;23.60;39.20
38746;DHT22;24488;0.000;0.000;2024-01-30T02:40:46;23.50;39.10
38746;DHT22;24488;0.000;0.000;2024-01-30T02:43:12;23.50;38.70
38746;DHT22;24488;0.000;0.000;2024-01-30T02:45:37;23.50;39.20
38746;DHT22;24488;0.000;0.000;2024-01-30T02:48:03;23.50;39.30
38746;DHT22;24488;0.000;0.000;2024-01-30T02:50:29;23.40;39.20
38746;DHT22;24488;0.000;0.000;2024-01-30T02:52:54;23.40;38.80
38746;DHT22;24488;0.000;0.000;2024-01-30T02:55:20;23.50;39.30
38746;DHT22;24488;0.000;0.000;2024-01-30T02:57:45;23.50;39.30
38746;DHT22;24488;0.000;0.000;2024-01-30T03:00:11;23.50;39.20
38746;DHT22;24488;0.000;0.000;2024-01-30T03:02:37;23.50;38.80
38746;DHT22;24488;0.000;0.000;2024-01-30T03:05:03;23.40;39.20
38746;DHT22;24488;0.000;0.000;2024-01-30T03:07:29;23.40;39.20
38746;DHT22;24488;0.000;0.000;2024-01-30T03:09:55;23.40;39.20
38746;DHT22;24488;0.000;0.000;2024-01-30T03:12:21;23.40;38.80
38746;DHT22;24488;0.000;0.000;2024-01-30T03:14:47;23.40;39.20
38746;DHT22;24488;0.000;0.000;2024-01-30T03:17:12;23.40;39.20
38746;DHT22;24488;0.000;0.000;2024-01-30T03:19:38;23.40;39.20
38746;DHT22;24488;0.000;0.000;2024-01-30T03:22:04;23.40;38.80
38746;DHT22;24488;0.000;0.000;2024-01-30T03:24:29;23.40;39.20
38746;DHT22;24488;0.000;0.000;2024-01-30T03:26:55;23.40;39.20
38746;DHT22;24488;0.000;0.000;2024-01-30T03:29:21;23.40;39.30
38746;DHT22;24488;0.000;0.000;2024-01-30T03:31:47;23.40;39.30
38746;DHT22;24488;0.000;0.000;2024-01-30T03:34:12;23.40;38.80
38746;DHT22;24488;0.000;0.000;2024-01-30T03:36:38;23.40;39.30
38746;DHT22;24488;0.000;0.000;2024-01-30T03:39:03;23.40;39.20
38746;DHT22;24488;0.000;0.000;2024-01-30T03:41:29;23.40;39.20
38746;DHT22;24488;0.000;0.000;2024-01-30T03:43:55;23.40;38.80
38746;DHT22;24488;0.000;0.000;2024-01-30T03:46:20;23.40;39.30
38746;DHT22;24488;0.000;0.000;2024-01-30T03:48:46;23.40;39.30
38746;DHT22;24488;0.000;0.000;2024-01-30T03:51:12;23.40;39.30
38746;DHT22;24488;0.000;0.000;2024-01-30T03:53:40;23.30;38.80
38746;DHT22;24488;0.000;0.000;2024-01-30T03:56:06;23.30;39.20
38746;DHT22;24488;0.000;0.000;2024-01-30T03:58:32;23.30;39.20
38746;DHT22;24488;0.000;0.000;2024-01-30T04:00:58;23.30;39.10
38746;DHT22;24488;0.000;0.000;2024-01-30T04:03:23;23.30;38.70
38746;DHT22;24488;0.000;0.000;2024-01-30T04:05:50;23.40;39.20
38746;DHT22;24488;0.000;0.000;2024-01-30T04:08:19;23.40;39.20
38746;DHT22;24488;0.000;0.000;2024-01-30T04:10:45;23.40;39.20
38746;DHT22;24488;0.000;0.000;2024-01-30T04:13:11;23.30;38.70
38746;DHT22;24488;0.000;0.000;2024-01-30T04:15:37;23.30;39.20
38746;DHT22;24488;0.000;0.000;2024-01-30T04:18:02;23.30;39.20
38746;DHT22;24488;0.000;0.000;2024-01-30T04:20:28;23.30;39.20
38746;DHT22;24488;0.000;0.000;2024-01-30T04:22:54;23.30;38.70
38746;DHT22;24488;0.000;0.000;2024-01-30T04:25:20;23.30;39.10
38746;DHT22;24488;0.000;0.000;2024-01-30T04:27:46;23.30;39.10
38746;DHT22;24488;0.000;0.000;2024-01-30T04:30:11;23.30;39.10
38746;DHT22;24488;0.000;0.000;2024-01-30T04:32:37;23.30;38.70
38746;DHT22;24488;0.000;0.000;2024-01-30T04:35:03;23.30;39.20
38746;DHT22;24488;0.000;0.000;2024-01-30T04:37:29;23.30;39.20
38746;DHT22;24488;0.000;0.000;2024-01-30T04:39:54;23.30;39.10
38746;DHT22;24488;0.000;0.000;2024-01-30T04:42:20;23.30;38.70
38746;DHT22;24488;0.000;0.000;2024-01-30T04:44:45;23.30;39.10
38746;DHT22;24488;0.000;0.000;2024-01-30T04:47:11;23.30;39.10
38746;DHT22;24488;0.000;0.000;2024-01-30T04:49:40;23.30;39.10
38746;DHT22;24488;0.000;0.000;2024-01-30T04:52:06;23.30;38.60
38746;DHT22;24488;0.000;0.000;2024-01-30T04:54:32;23.30;39.10
38746;DHT22;24488;0.000;0.000;2024-01-30T04:56:58;23.20;39.10
38746;DHT22;24488;0.000;0.000;2024-01-30T04:59:24;23.20;39.10
38746;DHT22;24488;0.000;0.000;2024-01-30T05:01:49;23.30;39.10
38746;DHT22;24488;0.000;0.000;2024-01-30T05:04:15;23.20;38.60
38746;DHT22;24488;0.000;0.000;2024-01-30T05:06:40;23.30;39.10
38746;DHT22;24488;0.000;0.000;2024-01-30T05:09:06;23.30;39.10
38746;DHT22;24488;0.000;0.000;2024-01-30T05:11:36;23.30;39.10
38746;DHT22;24488;0.000;0.000;2024-01-30T05:14:03;23.30;38.60
38746;DHT22;24488;0.000;0.000;2024-01-30T05:16:28;23.30;39.10
38746;DHT22;24488;0.000;0.000;2024-01-30T05:18:54;23.20;39.10
38746;DHT22;24488;0.000;0.000;2024-01-30T05:21:19;23.20;39.10
38746;DHT22;24488;0.000;0.000;2024-01-30T05:23:45;23.20;38.60
38746;DHT22;24488;0.000;0.000;2024-01-30T05:26:11;23.20;39.10
38746;DHT22;24488;0.000;0.000;2024-01-30T05:28:36;23.20;39.00
38746;DHT22;24488;0.000;0.000;2024-01-30T05:31:02;23.20;39.00
38746;DHT22;24488;0.000;0.000;2024-01-30T05:33:27;23.30;38.60
38746;DHT22;24488;0.000;0.000;2024-01-30T05:35:53;23.30;39.00
38746;DHT22;24488;0.000;0.000;2024-01-30T05:38:20;23.30;39.00
38746;DHT22;24488;0.000;0.000;2024-01-30T05:40:45;23.20;39.00
38746;DHT22;24488;0.000;0.000;2024-01-30T05:43:11;23.20;38.60
38746;DHT22;24488;0.000;0.000;2024-01-30T05:45:37;23.20;39.00
38746;DHT22;24488;0.000;0.000;2024-01-30T05:48:03;23.20;39.00
38746;DHT22;24488;0.000;0.000;2024-01-30T05:50:29;23.20;39.00
38746;DHT22;24488;0.000;0.000;2024-01-30T05:52:55;23.20;38.50
38746;DHT22;24488;0.000;0.000;2024-01-30T05:55:21;23.20;39.00
38746;DHT22;24488;0.000;0.000;2024-01-30T05:57:46;23.30;39.00
38746;DHT22;24488;0.000;0.000;2024-01-30T06:00:12;23.20;39.00
38746;DHT22;24488;0.000;0.000;2024-01-30T06:02:38;23.20;38.50
38746;DHT22;24488;0.000;0.000;2024-01-30T06:05:03;23.20;39.00
38746;DHT22;24488;0.000;0.000;2024-01-30T06:07:29;23.20;39.00
38746;DHT22;24488;0.000;0.000;2024-01-30T06:09:54;23.20;39.00
38746;DHT22;24488;0.000;0.000;2024-01-30T06:12:20;23.20;38.50
38746;DHT22;24488;0.000;0.000;2024-01-30T06:14:46;23.20;38.90
38746;DHT22;24488;0.000;0.000;2024-01-30T06:17:11;23.20;38.90
38746;DHT22;24488;0.000;0.000;2024-01-30T06:19:40;23.30;39.00
38746;DHT22;24488;0.000;0.000;2024-01-30T06:22:06;23.20;38.40
38746;DHT22;24488;0.000;0.000;2024-01-30T06:24:32;23.20;38.90
38746;DHT22;24488;0.000;0.000;2024-01-30T06:26:59;23.20;38.90
38746;DHT22;24488;0.000;0.000;2024-01-30T06:29:25;23.20;39.00
38746;DHT22;24488;0.000;0.000;2024-01-30T06:31:52;23.20;39.10
38746;DHT22;24488;0.000;0.000;2024-01-30T06:34:17;23.10;38.40
38746;DHT22;24488;0.000;0.000;2024-01-30T06:36:43;23.10;38.50
38746;DHT22;24488;0.000;0.000;2024-01-30T06:39:08;23.10;38.60
38746;DHT22;24488;0.000;0.000;2024-01-30T06:41:34;23.10;38.90
38746;DHT22;24488;0.000;0.000;2024-01-30T06:44:01;23.10;38.60
38746;DHT22;24488;0.000;0.000;2024-01-30T06:46:28;23.10;39.10
38746;DHT22;24488;0.000;0.000;2024-01-30T06:48:53;23.00;39.10
38746;DHT22;24488;0.000;0.000;2024-01-30T06:51:19;23.00;39.10
38746;DHT22;24488;0.000;0.000;2024-01-30T06:53:44;23.00;38.70
38746;DHT22;24488;0.000;0.000;2024-01-30T06:56:10;23.00;39.20
38746;DHT22;24488;0.000;0.000;2024-01-30T06:58:36;22.90;39.10
38746;DHT22;24488;0.000;0.000;2024-01-30T07:01:01;22.90;39.20
38746;DHT22;24488;0.000;0.000;2024-01-30T07:03:27;22.90;38.60
38746;DHT22;24488;0.000;0.000;2024-01-30T07:05:52;22.90;39.10
38746;DHT22;24488;0.000;0.000;2024-01-30T07:08:18;23.00;39.00
38746;DHT22;24488;0.000;0.000;2024-01-30T07:10:44;23.00;38.80
38746;DHT22;24488;0.000;0.000;2024-01-30T07:13:10;23.10;38.20
38746;DHT22;24488;0.000;0.000;2024-01-30T07:15:36;23.10;38.70
38746;DHT22;24488;0.000;0.000;2024-01-30T07:18:02;23.20;38.60
38746;DHT22;24488;0.000;0.000;2024-01-30T07:20:28;23.20;38.60
38746;DHT22;24488;0.000;0.000;2024-01-30T07:22:56;23.30;38.10
38746;DHT22;24488;0.000;0.000;2024-01-30T07:25:21;23.20;38.50
38746;DHT22;24488;0.000;0.000;2024-01-30T07:27:52;23.30;38.50
38746;DHT22;24488;0.000;0.000;2024-01-30T07:30:18;23.40;38.60
38746;DHT22;24488;0.000;0.000;2024-01-30T07:32:44;23.30;38.00
38746;DHT22;24488;0.000;0.000;2024-01-30T07:35:09;23.30;38.50
38746;DHT22;24488;0.000;0.000;2024-01-30T07:37:36;23.30;38.50
38746;DHT22;24488;0.000;0.000;2024-01-30T07:40:02;23.40;38.50
38746;DHT22;24488;0.000;0.000;2024-01-30T07:42:28;23.40;38.10
38746;DHT22;24488;0.000;0.000;2024-01-30T07:44:54;23.40;38.50
38746;DHT22;24488;0.000;0.000;2024-01-30T07:47:19;23.40;38.50
38746;DHT22;24488;0.000;0.000;2024-01-30T07:49:45;23.40;38.50
38746;DHT22;24488;0.000;0.000;2024-01-30T07:52:11;23.40;38.00
38746;DHT22;24488;0.000;0.000;2024-01-30T07:54:36;23.40;38.50
38746;DHT22;24488;0.000;0.000;2024-01-30T07:57:04;23.40;39.00
38746;DHT22;24488;0.000;0.000;2024-01-30T07:59:29;23.40;38.50
38746;DHT22;24488;0.000;0.000;2024-01-30T08:01:55;23.40;38.50
38746;DHT22;24488;0.000;0.000;2024-01-30T08:04:20;23.40;38.00
38746;DHT22;24488;0.000;0.000;2024-01-30T08:06:46;23.40;38.40
38746;DHT22;24488;0.000;0.000;2024-01-30T08:09:12;23.40;38.40
38746;DHT22;24488;0.000;0.000;2024-01-30T08:11:37;23.40;38.40
38746;DHT22;24488;0.000;0.000;2024-01-30T08:14:03;23.40;38.00
38746;DHT22;24488;0.000;0.000;2024-01-30T08:16:28;23.40;38.40
38746;DHT22;24488;0.000;0.000;2024-01-30T08:18:54;23.40;38.40
38746;DHT22;24488;0.000;0.000;2024-01-30T08:21:22;23.50;38.50
38746;DHT22;24488;0.000;0.000;2024-01-30T08:23:48;23.50;38.00
38746;DHT22;24488;0.000;0.000;2024-01-30T08:26:14;23.40;38.40
38746;DHT22;24488;0.000;0.000;2024-01-30T08:28:39;23.40;38.40
38746;DHT22;24488;0.000;0.000;2024-01-30T08:31:05;23.50;38.50
38746;DHT22;24488;0.000;0.000;2024-01-30T08:33:30;23.50;38.00
38746;DHT22;24488;0.000;0.000;2024-01-30T08:35:56;23.40;38.40
38746;DHT22;24488;0.000;0.000;2024-01-30T08:38:21;23.40;38.30
38746;DHT22;24488;0.000;0.000;2024-01-30T08:40:47;23.40;38.40
38746;DHT22;24488;0.000;0.000;2024-01-30T08:43:12;23.50;37.90
38746;DHT22;24488;0.000;0.000;2024-01-30T08:45:38;23.50;38.40
38746;DHT22;24488;0.000;0.000;2024-01-30T08:48:04;23.50;38.40
38746;DHT22;24488;0.000;0.000;2024-01-30T08:50:29;23.50;38.40
38746;DHT22;24488;0.000;0.000;2024-01-30T08:52:55;23.50;38.00
38746;DHT22;24488;0.000;0.000;2024-01-30T08:55:21;23.40;38.40
38746;DHT22;24488;0.000;0.000;2024-01-30T08:57:47;23.40;38.40
38746;DHT22;24488;0.000;0.000;2024-01-30T09:00:13;23.40;38.40
38746;DHT22;24488;0.000;0.000;2024-01-30T09:02:38;23.40;38.10
38746;DHT22;24488;0.000;0.000;2024-01-30T09:05:04;23.40;38.50
38746;DHT22;24488;0.000;0.000;2024-01-30T09:07:30;23.40;38.60
38746;DHT22;24488;0.000;0.000;2024-01-30T09:09:55;23.30;38.60
38746;DHT22;24488;0.000;0.000;2024-01-30T09:12:21;23.20;38.20
38746;DHT22;24488;0.000;0.000;2024-01-30T09:14:46;23.30;38.70
38746;DHT22;24488;0.000;0.000;2024-01-30T09:17:12;23.20;38.60
38746;DHT22;24488;0.000;0.000;2024-01-30T09:19:38;23.20;38.70
38746;DHT22;24488;0.000;0.000;2024-01-30T09:22:04;23.10;38.20
38746;DHT22;24488;0.000;0.000;2024-01-30T09:24:29;23.20;38.80
38746;DHT22;24488;0.000;0.000;2024-01-30T09:26:55;23.10;38.70
38746;DHT22;24488;0.000;0.000;2024-01-30T09:29:20;23.20;38.80
38746;DHT22;24488;0.000;0.000;2024-01-30T09:31:46;23.10;38.80
38746;DHT22;24488;0.000;0.000;2024-01-30T09:34:12;23.10;38.30
38746;DHT22;24488;0.000;0.000;2024-01-30T09:36:39;23.10;38.70
38746;DHT22;24488;0.000;0.000;2024-01-30T09:39:04;23.20;38.60
38746;DHT22;24488;0.000;0.000;2024-01-30T09:41:32;23.20;38.40
38746;DHT22;24488;0.000;0.000;2024-01-30T09:43:58;23.30;38.00
38746;DHT22;24488;0.000;0.000;2024-01-30T09:46:25;23.30;38.40
38746;DHT22;24488;0.000;0.000;2024-01-30T09:48:53;23.30;38.30
38746;DHT22;24488;0.000;0.000;2024-01-30T09:51:19;23.40;38.30
38746;DHT22;24488;0.000;0.000;2024-01-30T09:53:45;23.40;37.80
38746;DHT22;24488;0.000;0.000;2024-01-30T09:56:12;23.40;38.20
38746;DHT22;24488;0.000;0.000;2024-01-30T09:58:37;23.40;38.20
38746;DHT22;24488;0.000;0.000;2024-01-30T10:01:05;23.40;38.20
38746;DHT22;24488;0.000;0.000;2024-01-30T10:03:31;23.40;37.70
38746;DHT22;24488;0.000;0.000;2024-01-30T10:05:56;23.40;38.20
38746;DHT22;24488;0.000;0.000;2024-01-30T10:08:22;23.40;38.20
38746;DHT22;24488;0.000;0.000;2024-01-30T10:10:49;23.40;38.20
38746;DHT22;24488;0.000;0.000;2024-01-30T10:13:15;23.40;37.70
38746;DHT22;24488;0.000;0.000;2024-01-30T10:15:41;23.50;38.20
38746;DHT22;24488;0.000;0.000;2024-01-30T10:18:06;23.50;38.20
38746;DHT22;24488;0.000;0.000;2024-01-30T10:20:33;23.50;38.30
38746;DHT22;24488;0.000;0.000;2024-01-30T10:22:59;23.50;37.80
38746;DHT22;24488;0.000;0.000;2024-01-30T10:25:25;23.50;38.20
38746;DHT22;24488;0.000;0.000;2024-01-30T10:27:54;23.50;38.20
38746;DHT22;24488;0.000;0.000;2024-01-30T10:30:21;23.50;38.20
38746;DHT22;24488;0.000;0.000;2024-01-30T10:32:47;23.50;37.80
38746;DHT22;24488;0.000;0.000;2024-01-30T10:35:13;23.50;38.20
38746;DHT22;24488;0.000;0.000;2024-01-30T10:37:38;23.50;38.20
38746;DHT22;24488;0.000;0.000;2024-01-30T10:40:04;23.50;38.20
38746;DHT22;24488;0.000;0.000;2024-01-30T10:42:33;23.50;37.80
38746;DHT22;24488;0.000;0.000;2024-01-30T10:45:14;23.50;38.80
38746;DHT22;24488;0.000;0.000;2024-01-30T10:47:42;23.50;38.20
38746;DHT22;24488;0.000;0.000;2024-01-30T10:50:09;23.50;38.20
38746;DHT22;24488;0.000;0.000;2024-01-30T10:52:35;23.50;37.80
38746;DHT22;24488;0.000;0.000;2024-01-30T10:55:01;23.50;38.20
38746;DHT22;24488;0.000;0.000;2024-01-30T10:57:31;23.50;38.20
38746;DHT22;24488;0.000;0.000;2024-01-30T10:59:59;23.50;38.20
38746;DHT22;24488;0.000;0.000;2024-01-30T11:02:26;23.50;37.80
38746;DHT22;24488;0.000;0.000;2024-01-30T11:04:56;23.50;38.20
38746;DHT22;24488;0.000;0.000;2024-01-30T11:07:26;23.50;38.20
38746;DHT22;24488;0.000;0.000;2024-01-30T11:09:54;23.50;38.20
38746;DHT22;24488;0.000;0.000;2024-01-30T11:12:29;23.50;37.70
38746;DHT22;24488;0.000;0.000;2024-01-30T11:15:09;23.50;38.20
38746;DHT22;24488;0.000;0.000;2024-01-30T11:20:14;23.50;38.20
38746;DHT22;24488;0.000;0.000;2024-01-30T11:23:02;23.50;37.80
38746;DHT22;24488;0.000;0.000;2024-01-30T11:25:32;23.60;38.30
38746;DHT22;24488;0.000;0.000;2024-01-30T11:27:58;23.50;38.20
38746;DHT22;24488;0.000;0.000;2024-01-30T11:30:30;23.50;38.20
38746;DHT22;24488;0.000;0.000;2024-01-30T11:33:00;23.50;37.70
38746;DHT22;24488;0.000;0.000;2024-01-30T11:35:30;23.50;38.20
38746;DHT22;24488;0.000;0.000;2024-01-30T11:37:58;23.50;38.20
38746;DHT22;24488;0.000;0.000;2024-01-30T11:40:24;23.50;38.20
38746;DHT22;24488;0.000;0.000;2024-01-30T11:42:51;23.50;37.70
38746;DHT22;24488;0.000;0.000;2024-01-30T11:45:17;23.50;38.20
38746;DHT22;24488;0.000;0.000;2024-01-30T11:47:42;23.50;38.20
38746;DHT22;24488;0.000;0.000;2024-01-30T11:50:08;23.60;38.30
38746;DHT22;24488;0.000;0.000;2024-01-30T11:52:36;23.50;37.70
38746;DHT22;24488;0.000;0.000;2024-01-30T11:55:02;23.50;38.20
38746;DHT22;24488;0.000;0.000;2024-01-30T11:57:28;23.50;38.20
38746;DHT22;24488;0.000;0.000;2024-01-30T11:59:53;23.50;38.20
38746;DHT22;24488;0.000;0.000;2024-01-30T12:02:19;23.50;37.80
38746;DHT22;24488;0.000;0.000;2024-01-30T12:04:45;23.50;38.20
38746;DHT22;24488;0.000;0.000;2024-01-30T12:07:11;23.50;38.20
38746;DHT22;24488;0.000;0.000;2024-01-30T12:09:36;23.50;38.20
38746;DHT22;24488;0.000;0.000;2024-01-30T12:12:02;23.50;37.80
38746;DHT22;24488;0.000;0.000;2024-01-30T12:14:28;23.50;38.30
38746;DHT22;24488;0.000;0.000;2024-01-30T12:16:54;23.50;38.20
38746;DHT22;24488;0.000;0.000;2024-01-30T12:19:26;23.50;38.20
38746;DHT22;24488;0.000;0.000;2024-01-30T12:21:57;23.60;38.30
38746;DHT22;24488;0.000;0.000;2024-01-30T12:24:27;23.50;37.80
38746;DHT22;24488;0.000;0.000;2024-01-30T12:26:56;23.60;38.30
38746;DHT22;24488;0.000;0.000;2024-01-30T12:29:23;23.60;38.30
38746;DHT22;24488;0.000;0.000;2024-01-30T12:31:48;23.50;38.20
38746;DHT22;24488;0.000;0.000;2024-01-30T12:34:14;23.50;37.80
38746;DHT22;24488;0.000;0.000;2024-01-30T12:36:42;23.60;38.30
38746;DHT22;24488;0.000;0.000;2024-01-30T12:39:10;23.80;38.40
38746;DHT22;24488;0.000;0.000;2024-01-30T12:41:38;23.60;38.30
38746;DHT22;24488;0.000;0.000;2024-01-30T12:44:03;23.50;37.80
38746;DHT22;24488;0.000;0.000;2024-01-30T12:46:29;23.60;38.30
38746;DHT22;24488;0.000;0.000;2024-01-30T12:48:54;23.60;38.30
38746;DHT22;24488;0.000;0.000;2024-01-30T12:51:20;23.50;38.20
38746;DHT22;24488;0.000;0.000;2024-01-30T12:53:46;23.60;37.80
38746;DHT22;24488;0.000;0.000;2024-01-30T12:56:13;23.60;38.30
38746;DHT22;24488;0.000;0.000;2024-01-30T12:58:40;23.60;38.30
38746;DHT22;24488;0.000;0.000;2024-01-30T13:01:06;23.60;38.30
38746;DHT22;24488;0.000;0.000;2024-01-30T13:03:32;23.60;37.80
38746;DHT22;24488;0.000;0.000;2024-01-30T13:05:58;23.60;38.30
38746;DHT22;24488;0.000;0.000;2024-01-30T13:08:23;23.60;38.30
38746;DHT22;24488;0.000;0.000;2024-01-30T13:10:49;23.60;38.30
38746;DHT22;24488;0.000;0.000;2024-01-30T13:13:15;23.60;37.80
38746;DHT22;24488;0.000;0.000;2024-01-30T13:15:40;23.60;38.30
38746;DHT22;24488;0.000;0.000;2024-01-30T13:18:06;23.60;38.30
38746;DHT22;24488;0.000;0.000;2024-01-30T13:20:32;23.60;38.30
38746;DHT22;24488;0.000;0.000;2024-01-30T13:22:57;23.60;37.80
38746;DHT22;24488;0.000;0.000;2024-01-30T13:25:23;23.60;38.30
38746;DHT22;24488;0.000;0.000;2024-01-30T13:27:49;23.60;38.30
38746;DHT22;24488;0.000;0.000;2024-01-30T13:30:14;23.60;38.30
38746;DHT22;24488;0.000;0.000;2024-01-30T13:32:40;23.60;37.80
38746;DHT22;24488;0.000;0.000;2024-01-30T13:35:06;23.50;38.30
38746;DHT22;24488;0.000;0.000;2024-01-30T13:37:32;23.60;38.30
38746;DHT22;24488;0.000;0.000;2024-01-30T13:39:58;23.60;38.30
38746;DHT22;24488;0.000;0.000;2024-01-30T13:42:23;23.60;37.80
38746;DHT22;24488;0.000;0.000;2024-01-30T13:44:49;23.60;38.30
38746;DHT22;24488;0.000;0.000;2024-01-30T13:47:15;23.70;38.30
38746;DHT22;24488;0.000;0.000;2024-01-30T13:49:41;23.70;38.40
38746;DHT22;24488;0.000;0.000;2024-01-30T13:52:06;23.60;37.80
38746;DHT22;24488;0.000;0.000;2024-01-30T13:54:32;23.60;38.30
38746;DHT22;24488;0.000;0.000;2024-01-30T13:56:58;23.60;38.30
38746;DHT22;24488;0.000;0.000;2024-01-30T13:59:23;23.60;38.30
38746;DHT22;24488;0.000;0.000;2024-01-30T14:01:51;23.60;38.30
38746;DHT22;24488;0.000;0.000;2024-01-30T14:04:17;23.60;37.90
38746;DHT22;24488;0.000;0.000;2024-01-30T14:06:42;23.60;38.30
38746;DHT22;24488;0.000;0.000;2024-01-30T14:09:08;23.60;38.30
38746;DHT22;24488;0.000;0.000;2024-01-30T14:11:34;23.60;38.30
38746;DHT22;24488;0.000;0.000;2024-01-30T14:14:00;23.60;37.80
38746;DHT22;24488;0.000;0.000;2024-01-30T14:16:25;23.60;38.30
38746;DHT22;24488;0.000;0.000;2024-01-30T14:18:51;23.60;38.30
38746;DHT22;24488;0.000;0.000;2024-01-30T14:21:16;23.60;38.30
38746;DHT22;24488;0.000;0.000;2024-01-30T14:23:42;23.60;37.80
38746;DHT22;24488;0.000;0.000;2024-01-30T14:26:07;23.70;38.40
38746;DHT22;24488;0.000;0.000;2024-01-30T14:28:33;23.60;38.30
38746;DHT22;24488;0.000;0.000;2024-01-30T14:31:00;23.60;38.30
38746;DHT22;24488;0.000;0.000;2024-01-30T14:33:25;23.60;37.90
38746;DHT22;24488;0.000;0.000;2024-01-30T14:35:51;23.60;38.30
38746;DHT22;24488;0.000;0.000;2024-01-30T14:38:16;23.60;38.30
38746;DHT22;24488;0.000;0.000;2024-01-30T14:40:42;23.60;38.30
38746;DHT22;24488;0.000;0.000;2024-01-30T14:43:07;23.60;37.90
38746;DHT22;24488;0.000;0.000;2024-01-30T14:45:33;23.50;38.40
38746;DHT22;24488;0.000;0.000;2024-01-30T14:47:59;23.60;38.50
38746;DHT22;24488;0.000;0.000;2024-01-30T14:50:25;23.50;38.40
38746;DHT22;24488;0.000;0.000;2024-01-30T14:52:52;23.50;38.10
38746;DHT22;24488;0.000;0.000;2024-01-30T14:55:17;23.50;38.60
38746;DHT22;24488;0.000;0.000;2024-01-30T14:57:43;23.40;38.60
38746;DHT22;24488;0.000;0.000;2024-01-30T15:00:10;23.50;38.70
38746;DHT22;24488;0.000;0.000;2024-01-30T15:02:36;23.40;38.20
38746;DHT22;24488;0.000;0.000;2024-01-30T15:05:02;23.40;38.70
38746;DHT22;24488;0.000;0.000;2024-01-30T15:07:27;23.40;38.70
38746;DHT22;24488;0.000;0.000;2024-01-30T15:09:54;23.40;38.70
38746;DHT22;24488;0.000;0.000;2024-01-30T15:12:19;23.40;38.20
38746;DHT22;24488;0.000;0.000;2024-01-30T15:14:45;23.40;38.60
38746;DHT22;24488;0.000;0.000;2024-01-30T15:17:16;23.40;38.60
38746;DHT22;24488;0.000;0.000;2024-01-30T15:19:43;23.50;38.60
38746;DHT22;24488;0.000;0.000;2024-01-30T15:22:08;23.50;38.00
38746;DHT22;24488;0.000;0.000;2024-01-30T15:24:34;23.50;38.40
38746;DHT22;24488;0.000;0.000;2024-01-30T15:27:00;23.50;38.40
38746;DHT22;24488;0.000;0.000;2024-01-30T15:29:26;23.60;38.40
38746;DHT22;24488;0.000;0.000;2024-01-30T15:31:51;23.50;38.40
38746;DHT22;24488;0.000;0.000;2024-01-30T15:34:17;23.50;37.90
38746;DHT22;24488;0.000;0.000;2024-01-30T15:36:43;23.50;38.30
38746;DHT22;24488;0.000;0.000;2024-01-30T15:39:08;23.60;38.30